createdAt,value
2022-08-31T00:03:58.815Z,101049.7
2022-08-31T00:06:12.173Z,101049.7
2022-08-31T00:08:55.055Z,101048.61
2022-08-31T00:13:55.721Z,101050.09
2022-08-31T00:18:54.848Z,101053.39
2022-08-31T00:23:55.170Z,101053.74
2022-08-31T00:28:55.129Z,101052.72
2022-08-31T00:33:55.906Z,101051.39
2022-08-31T00:38:55.824Z,101061.23999999999
2022-08-31T00:43:57.467Z,101065.03
2022-08-31T00:49:01.389Z,101065.43000000001
2022-08-31T00:53:56.087Z,101063.08
2022-08-31T00:58:55.196Z,101068.81
2022-08-31T01:03:55.006Z,101065.27
2022-08-31T01:08:59.173Z,101064.9
2022-08-31T01:13:55.699Z,101065.93000000001
2022-08-31T01:18:56.697Z,101066.28
2022-08-31T01:23:57.104Z,101073.39
2022-08-31T01:29:00.631Z,101072.72
2022-08-31T01:33:54.901Z,101069.72
2022-08-31T01:38:54.729Z,101067.33
2022-08-31T01:43:56.103Z,101067.03
2022-08-31T01:48:54.757Z,101067.04999999999
2022-08-31T01:53:55.313Z,101065.41
2022-08-31T01:58:55.256Z,101062.7
2022-08-31T02:03:57.250Z,101063.26000000001
2022-08-31T02:08:54.725Z,101061.51999999999
2022-08-31T02:13:54.911Z,101062.03
2022-08-31T02:18:54.710Z,101056.92
2022-08-31T02:23:54.723Z,101056.61
2022-08-31T02:28:55.003Z,101055.28
2022-08-31T02:33:54.622Z,101054.33
2022-08-31T02:38:55.038Z,101056.98
2022-08-31T02:43:54.974Z,101053.54999999999
2022-08-31T02:48:54.953Z,101048.1
2022-08-31T02:53:54.815Z,101055.48999999999
2022-08-31T02:58:55.435Z,101051.36
2022-08-31T03:03:55.276Z,101055.39
2022-08-31T03:08:54.938Z,101058.12
2022-08-31T03:13:58.498Z,101055.78
2022-08-31T03:18:54.752Z,101058.39
2022-08-31T03:23:54.780Z,101060.89
2022-08-31T03:28:55.031Z,101064.61
2022-08-31T03:33:56.446Z,101062.09999999999
2022-08-31T03:38:54.769Z,101062.03
2022-08-31T03:43:54.815Z,101070.97
2022-08-31T03:48:54.535Z,101075.01
2022-08-31T03:53:54.883Z,101078.12
2022-08-31T03:56:11.636Z,101078.12
2022-08-31T03:58:54.569Z,101073.53
2022-08-31T04:03:55.184Z,101077.37
2022-08-31T04:08:56.080Z,101075.25
2022-08-31T04:13:54.767Z,101070.87
2022-08-31T04:18:54.758Z,101079.81999999999
2022-08-31T04:23:55.154Z,101086.35
2022-08-31T04:28:55.698Z,101086.58
2022-08-31T04:33:56.175Z,101098.36
2022-08-31T04:38:57.107Z,101106.67
2022-08-31T04:43:57.514Z,101111.27
2022-08-31T04:48:54.995Z,101112.53
2022-08-31T04:53:54.942Z,101121.67
2022-08-31T04:58:57.116Z,101131.58
2022-08-31T05:03:56.327Z,101125.45
2022-08-31T05:08:56.968Z,101126.28
2022-08-31T05:13:57.428Z,101127.34
2022-08-31T05:18:54.571Z,101124.21
2022-08-31T05:23:56.073Z,101124.91
2022-08-31T05:28:55.482Z,101122.31
2022-08-31T05:33:56.011Z,101126.75
2022-08-31T05:38:58.968Z,101130.38
2022-08-31T05:43:54.693Z,101132.37000000001
2022-08-31T05:48:54.734Z,101139.75
2022-08-31T05:53:57.353Z,101143.17
2022-08-31T05:58:55.385Z,101142.74
2022-08-31T06:03:55.884Z,101149.14
2022-08-31T06:08:55.186Z,101159.06
2022-08-31T06:13:57.426Z,101162.01999999999
2022-08-31T06:18:56.658Z,101169.84
2022-08-31T06:23:56.994Z,101178.88
2022-08-31T06:28:57.338Z,101176.81
2022-08-31T06:33:55.239Z,101177.62
2022-08-31T06:38:58.346Z,101171.25
2022-08-31T06:43:54.964Z,101166.6
2022-08-31T06:48:55.556Z,101162.23
2022-08-31T06:53:54.761Z,101161.01999999999
2022-08-31T06:58:54.923Z,101166.14
2022-08-31T07:03:56.095Z,101156.5
2022-08-31T07:08:57.238Z,101165.12
2022-08-31T07:10:35.337Z,101165.12
2022-08-31T07:13:56.029Z,101165.61
2022-08-31T07:18:59.579Z,101164.42
2022-08-31T07:23:57.124Z,101167.25
2022-08-31T07:28:56.556Z,101156.98
2022-08-31T07:32:56.640Z,101155.08
2022-08-31T07:33:56.201Z,101155.08
2022-08-31T07:34:09.958Z,101155.08
2022-08-31T07:39:04.419Z,101159.31
2022-08-31T07:43:56.160Z,101166.94
2022-08-31T07:48:54.660Z,101162.33
2022-08-31T07:53:55.153Z,101160.68000000001
2022-08-31T07:56:37.275Z,101160.68000000001
2022-08-31T07:58:47.044Z,101158.59
2022-08-31T07:58:54.304Z,101158.59
2022-08-31T08:02:45.423Z,101155.16
2022-08-31T08:03:54.387Z,101155.16
2022-08-31T08:09:22.233Z,101159.07999999999
2022-08-31T08:11:45.220Z,101163.04000000001
2022-08-31T08:13:54.792Z,101163.04000000001
2022-08-31T08:14:57.976Z,101163.04000000001
2022-08-31T08:16:33.323Z,101163.04000000001
2022-08-31T08:18:54.450Z,101164.93000000001
2022-08-31T08:20:01.453Z,101164.93000000001
2022-08-31T08:23:55.049Z,101171.83
2022-08-31T08:24:22.735Z,101171.83
2022-08-31T08:25:18.829Z,101171.83
2022-08-31T08:28:54.622Z,101183.75
2022-08-31T08:30:06.455Z,101183.75
2022-08-31T08:33:34.174Z,101188.99
2022-08-31T08:33:54.784Z,101188.99
2022-08-31T08:37:07.250Z,101173.72
2022-08-31T08:38:56.414Z,101173.72
2022-08-31T08:43:58.027Z,101172.24
2022-08-31T08:48:56.714Z,101170.73000000001
2022-08-31T08:53:53.958Z,101173.91
2022-08-31T08:54:00.825Z,101173.91
2022-08-31T08:58:55.020Z,101175.61
2022-08-31T09:04:05.294Z,101171.51
2022-08-31T09:09:11.633Z,101170.24
2022-08-31T09:14:08.765Z,101171.81
2022-08-31T09:18:59.078Z,101174.57
2022-08-31T09:24:00.567Z,101173.06999999999
2022-08-31T09:24:03.826Z,101173.06999999999
2022-08-31T09:24:07.850Z,101173.06999999999
2022-08-31T09:28:54.971Z,101182.3
2022-08-31T09:33:54.517Z,101177.87
2022-08-31T09:38:56.455Z,101167.26
2022-08-31T09:44:14.370Z,101163.95
2022-08-31T09:48:57.203Z,101162.08
2022-08-31T09:54:12.563Z,101160.65999999999
2022-08-31T09:59:00.488Z,101155.97
2022-08-31T10:04:15.347Z,101152.69
2022-08-31T10:08:59.013Z,101147.37
2022-08-31T10:14:03.589Z,101154.67
2022-08-31T10:19:00.624Z,101146.97
2022-08-31T10:24:05.239Z,101144.84
2022-08-31T10:28:59.006Z,101138.0
2022-08-31T10:34:09.186Z,101137.49
2022-08-31T10:38:56.742Z,101139.92
2022-08-31T10:44:00.754Z,101137.23
2022-08-31T10:48:56.639Z,101139.67
2022-08-31T10:54:05.886Z,101148.94
2022-08-31T10:59:04.624Z,101141.45999999999
2022-08-31T11:04:14.458Z,101142.81
2022-08-31T11:09:00.191Z,101135.72
2022-08-31T11:11:46.561Z,101126.29
2022-08-31T11:14:07.109Z,101126.29
2022-08-31T11:14:35.628Z,101126.29
2022-08-31T11:19:13.498Z,101123.13
2022-08-31T11:20:18.794Z,101123.13
2022-08-31T11:23:45.164Z,101122.34
2022-08-31T11:24:10.597Z,101122.34
2022-08-31T11:28:10.125Z,101115.56
2022-08-31T11:28:59.749Z,101115.56
2022-08-31T11:29:56.396Z,101115.56
2022-08-31T11:31:54.028Z,101117.6
2022-08-31T11:34:15.021Z,101117.6
2022-08-31T11:39:14.611Z,101107.87
2022-08-31T11:43:54.324Z,101110.47
2022-08-31T11:45:07.105Z,101110.47
2022-08-31T11:48:58.153Z,101102.51
2022-08-31T11:53:54.619Z,101112.66
2022-08-31T11:56:55.769Z,101110.38
2022-08-31T11:59:14.230Z,101110.38
2022-08-31T11:59:25.119Z,101110.38
2022-08-31T11:59:34.120Z,101110.38
2022-08-31T12:04:02.370Z,101104.5
2022-08-31T12:09:13.978Z,101095.17
2022-08-31T12:14:00.553Z,101087.66
2022-08-31T12:14:50.296Z,101087.66
2022-08-31T12:17:24.057Z,101079.79000000001
2022-08-31T12:19:24.002Z,101079.79000000001
2022-08-31T12:24:17.675Z,101074.3
2022-08-31T12:29:14.371Z,101070.87
2022-08-31T12:34:00.921Z,101069.25
2022-08-31T12:39:07.455Z,101053.61
2022-08-31T12:41:51.059Z,101054.17
2022-08-31T12:43:54.384Z,101054.17
2022-08-31T12:44:58.248Z,101054.17
2022-08-31T12:49:11.170Z,101045.1
2022-08-31T12:54:11.485Z,101041.66
2022-08-31T12:59:09.148Z,101032.5
2022-08-31T13:00:47.825Z,101032.5
2022-08-31T13:03:53.864Z,101039.64
2022-08-31T13:04:02.337Z,101039.64
2022-08-31T13:06:47.377Z,101027.58
2022-08-31T13:08:55.357Z,101027.58
2022-08-31T13:10:52.290Z,101027.58
2022-08-31T13:13:04.450Z,101024.79
2022-08-31T13:14:10.835Z,101024.79
2022-08-31T13:14:40.473Z,101024.79
2022-08-31T13:16:19.957Z,101024.79
2022-08-31T13:18:59.676Z,101015.08
2022-08-31T13:19:31.892Z,101015.08
2022-08-31T13:21:55.383Z,101020.43
2022-08-31T13:24:06.386Z,101020.43
2022-08-31T13:24:15.161Z,101020.43
2022-08-31T13:28:50.071Z,101015.85
2022-08-31T13:28:58.575Z,101015.85
2022-08-31T13:32:41.273Z,101017.62999999999
2022-08-31T13:34:00.809Z,101017.62999999999
2022-08-31T13:36:10.709Z,101017.62999999999
2022-08-31T13:38:55.080Z,101024.37999999999
2022-08-31T13:41:26.391Z,101024.37999999999
2022-08-31T13:43:59.766Z,101021.25
2022-08-31T13:46:58.346Z,101021.15
2022-08-31T13:49:01.004Z,101021.15
2022-08-31T13:53:38.602Z,101025.98000000001
2022-08-31T13:54:07.823Z,101025.98000000001
2022-08-31T13:56:35.236Z,101025.98000000001
2022-08-31T13:59:25.551Z,101018.2
2022-08-31T13:59:29.221Z,101018.2
2022-08-31T14:01:31.705Z,101018.2
2022-08-31T14:03:57.752Z,101011.5
2022-08-31T14:09:02.343Z,101016.41
2022-08-31T14:11:12.885Z,101016.41
2022-08-31T14:13:30.308Z,101019.84
2022-08-31T14:14:04.251Z,101019.84
2022-08-31T14:16:08.230Z,101019.84
2022-08-31T14:18:54.932Z,101020.2
2022-08-31T14:23:59.982Z,101019.8
2022-08-31T14:28:59.184Z,101025.01999999999
2022-08-31T14:34:08.744Z,101026.53
2022-08-31T14:38:41.655Z,101024.41
2022-08-31T14:38:54.207Z,101024.41
2022-08-31T14:43:55.938Z,101028.45
2022-08-31T14:46:49.498Z,101019.65
2022-08-31T14:48:55.364Z,101019.65
2022-08-31T14:53:55.901Z,101016.47
2022-08-31T14:58:54.434Z,101009.89
2022-08-31T15:03:54.625Z,101010.89
2022-08-31T15:08:54.277Z,101015.8
2022-08-31T15:13:54.777Z,101012.34
2022-08-31T15:18:55.141Z,101013.65
2022-08-31T15:23:54.335Z,101016.72
2022-08-31T15:28:56.055Z,101014.42
2022-08-31T15:33:54.829Z,101013.58
2022-08-31T15:38:56.398Z,101019.14
2022-08-31T15:43:55.030Z,101018.51000000001
2022-08-31T15:48:54.530Z,101019.72
2022-08-31T15:54:20.813Z,101022.58
2022-08-31T15:58:57.524Z,101029.13
2022-08-31T16:03:56.662Z,101029.81999999999
2022-08-31T16:08:55.459Z,101031.7
2022-08-31T16:13:58.064Z,101035.79
2022-08-31T16:18:56.280Z,101034.83
2022-08-31T16:23:59.648Z,101034.64
2022-08-31T16:28:55.315Z,101028.56
2022-08-31T16:33:54.940Z,101030.90999999999
2022-08-31T16:38:55.848Z,101026.15
2022-08-31T16:44:18.510Z,101024.61
2022-08-31T16:49:04.920Z,101027.25
2022-08-31T16:53:57.824Z,101026.12000000001
2022-08-31T16:58:57.695Z,101028.66
2022-08-31T17:03:56.216Z,101036.22
2022-08-31T17:08:57.267Z,101033.14
2022-08-31T17:13:57.242Z,101034.74
2022-08-31T17:18:56.524Z,101037.62000000001
2022-08-31T17:23:57.565Z,101037.09
2022-08-31T17:28:59.213Z,101039.87
2022-08-31T17:33:54.568Z,101049.44
2022-08-31T17:38:54.299Z,101055.3
2022-08-31T17:41:03.870Z,101055.3
2022-08-31T17:42:25.692Z,101057.89
2022-08-31T17:43:57.460Z,101057.89
2022-08-31T17:48:54.873Z,101057.42
2022-08-31T17:50:52.675Z,101057.42
2022-08-31T17:53:56.948Z,101059.74
2022-08-31T17:58:54.541Z,101058.64
2022-08-31T18:03:54.238Z,101062.7
2022-08-31T18:08:55.014Z,101063.72
2022-08-31T18:13:02.543Z,101062.0
2022-08-31T18:13:55.672Z,101062.0
2022-08-31T18:14:58.124Z,101062.0
2022-08-31T18:18:54.161Z,101068.48
2022-08-31T18:23:54.445Z,101073.1
2022-08-31T18:28:55.307Z,101075.86
2022-08-31T18:32:20.133Z,101078.99
2022-08-31T18:33:54.820Z,101078.99
2022-08-31T18:38:56.004Z,101080.36
2022-08-31T18:41:19.739Z,101080.36
2022-08-31T18:43:41.720Z,101079.08
2022-08-31T18:44:04.277Z,101079.08
2022-08-31T18:48:55.569Z,101075.9
2022-08-31T18:53:55.048Z,101082.96
2022-08-31T18:58:54.185Z,101080.22
2022-08-31T19:03:57.167Z,101082.75
2022-08-31T19:08:54.396Z,101078.47
2022-08-31T19:09:24.387Z,101078.47
2022-08-31T19:13:54.151Z,101084.84
2022-08-31T19:18:56.060Z,101071.54000000001
2022-08-31T19:20:19.799Z,101071.54000000001
2022-08-31T19:23:55.578Z,101071.75
2022-08-31T19:28:55.388Z,101080.39
2022-08-31T19:33:56.986Z,101081.08
2022-08-31T19:38:55.209Z,101080.58
2022-08-31T19:44:03.057Z,101081.87000000001
2022-08-31T19:48:58.858Z,101082.81
2022-08-31T19:50:41.541Z,101082.81
2022-08-31T19:53:55.340Z,101078.11
2022-08-31T19:58:55.481Z,101082.0
2022-08-31T20:03:55.103Z,101081.65000000001
2022-08-31T20:08:54.591Z,101083.78
2022-08-31T20:13:54.694Z,101082.81
2022-08-31T20:17:47.169Z,101083.8
2022-08-31T20:18:56.570Z,101083.8
2022-08-31T20:23:56.995Z,101087.87
2022-08-31T20:28:57.953Z,101085.91
2022-08-31T20:31:08.757Z,101085.91
2022-08-31T20:33:30.603Z,101085.74
2022-08-31T20:33:56.228Z,101085.74
2022-08-31T20:38:05.125Z,101093.3
2022-08-31T20:38:56.805Z,101093.3
2022-08-31T20:43:55.848Z,101102.61
2022-08-31T20:44:09.365Z,101102.61
2022-08-31T20:46:33.294Z,101102.61
2022-08-31T20:49:04.040Z,101100.58
2022-08-31T20:53:54.078Z,101099.63
2022-08-31T20:58:54.397Z,101101.59999999999
2022-08-31T21:01:17.273Z,101101.59999999999
2022-08-31T21:03:54.911Z,101102.57
2022-08-31T21:08:56.674Z,101099.65999999999
2022-08-31T21:11:12.371Z,101099.65999999999
2022-08-31T21:13:54.638Z,101100.2
2022-08-31T21:18:55.134Z,101103.77
2022-08-31T21:21:45.388Z,101107.22
2022-08-31T21:23:54.072Z,101107.22
2022-08-31T21:28:55.690Z,101108.62
2022-08-31T21:33:56.703Z,101112.81
2022-08-31T21:36:14.399Z,101112.81
2022-08-31T21:38:56.166Z,101119.86
2022-08-31T21:43:56.042Z,101124.08
2022-08-31T21:48:57.732Z,101128.54999999999
2022-08-31T21:53:56.412Z,101125.45
2022-08-31T21:54:25.093Z,101125.45
2022-08-31T21:58:56.455Z,101129.06
2022-08-31T22:03:58.790Z,101126.01
2022-08-31T22:08:59.117Z,101121.44
2022-08-31T22:13:56.442Z,101123.06999999999
2022-08-31T22:19:02.169Z,101121.67
2022-08-31T22:23:56.719Z,101122.39
2022-08-31T22:28:54.709Z,101129.42
2022-08-31T22:33:54.367Z,101132.20999999999
2022-08-31T22:38:55.136Z,101129.36
2022-08-31T22:43:55.311Z,101126.01
2022-08-31T22:48:54.761Z,101115.52
2022-08-31T22:53:54.098Z,101114.62
2022-08-31T22:58:55.918Z,101111.73999999999
2022-08-31T23:03:57.929Z,101116.08
2022-08-31T23:08:55.870Z,101116.94
2022-08-31T23:13:57.662Z,101114.75
2022-08-31T23:18:57.997Z,101110.96
2022-08-31T23:23:54.896Z,101115.37
2022-08-31T23:28:55.165Z,101112.39
2022-08-31T23:33:54.377Z,101117.28
2022-08-31T23:39:00.560Z,101115.93000000001
2022-08-31T23:43:55.721Z,101115.72
2022-08-31T23:48:54.639Z,101116.18
2022-08-31T23:53:54.730Z,101113.75
2022-08-31T23:58:54.303Z,101106.31
